createdAt,value
2022-10-21T00:04:11.328Z,90.49
2022-10-21T00:06:37.883Z,91.48
2022-10-21T00:09:11.491Z,91.07
2022-10-21T00:11:38.519Z,91.68
2022-10-21T00:14:05.047Z,91.77
2022-10-21T00:16:31.572Z,91.69
2022-10-21T00:18:58.075Z,91.82
2022-10-21T00:21:24.687Z,92.27
2022-10-21T00:23:51.220Z,91.72
2022-10-21T00:26:18.328Z,92.29
2022-10-21T00:28:44.968Z,92.44
2022-10-21T00:31:14.229Z,92.59
2022-10-21T00:33:41.253Z,92.56
2022-10-21T00:36:14.690Z,92.83
2022-10-21T00:38:45.721Z,92.96
2022-10-21T00:41:13.728Z,93.64
2022-10-21T00:44:00.600Z,93.37
2022-10-21T00:46:51.100Z,93.18
2022-10-21T00:49:31.172Z,92.90
2022-10-21T00:52:00.374Z,93.12
2022-10-21T00:54:30.013Z,92.96
2022-10-21T00:56:57.701Z,93.78
2022-10-21T00:59:26.947Z,93.84
2022-10-21T01:01:54.282Z,94.04
2022-10-21T01:04:20.948Z,94.02
2022-10-21T01:06:47.759Z,94.18
2022-10-21T01:09:15.112Z,93.64
2022-10-21T01:11:44.679Z,93.99
2022-10-21T01:14:36.802Z,94.10
2022-10-21T01:17:20.584Z,94.32
2022-10-21T01:20:19.465Z,94.12
2022-10-21T01:23:04.637Z,94.05
2022-10-21T01:25:46.366Z,93.92
2022-10-21T01:28:18.890Z,93.74
2022-10-21T01:31:01.131Z,94.37
2022-10-21T01:33:32.787Z,93.50
2022-10-21T01:36:11.405Z,93.07
2022-10-21T01:38:40.724Z,93.52
2022-10-21T01:41:23.865Z,93.07
2022-10-21T01:44:15.900Z,92.82
2022-10-21T01:46:59.214Z,92.66
2022-10-21T01:49:38.220Z,93.67
2022-10-21T01:52:05.511Z,93.63
2022-10-21T01:54:39.855Z,93.77
2022-10-21T01:57:08.725Z,93.73
2022-10-21T01:59:35.620Z,93.85
2022-10-21T02:02:06.810Z,93.81
2022-10-21T02:04:35.036Z,93.98
2022-10-21T02:07:02.511Z,93.93
2022-10-21T02:09:29.038Z,93.87
2022-10-21T02:11:59.498Z,94.19
2022-10-21T02:14:32.329Z,94.41
2022-10-21T02:17:00.332Z,94.71
2022-10-21T02:19:27.666Z,94.65
2022-10-21T02:21:59.035Z,94.39
2022-10-21T02:24:56.942Z,94.05
2022-10-21T02:27:24.431Z,94.34
2022-10-21T02:29:55.123Z,94.29
2022-10-21T02:32:52.689Z,94.72
2022-10-21T02:35:57.967Z,94.48
2022-10-21T02:38:37.978Z,94.37
2022-10-21T02:41:09.468Z,94.22
2022-10-21T02:43:41.614Z,94.53
2022-10-21T02:46:11.117Z,94.66
2022-10-21T02:48:39.649Z,94.39
2022-10-21T02:51:07.985Z,94.65
2022-10-21T02:53:35.800Z,95.07
2022-10-21T02:56:02.845Z,95.11
2022-10-21T02:58:30.134Z,95.29
2022-10-21T03:00:56.737Z,95.39
2022-10-21T03:03:23.345Z,95.41
2022-10-21T03:05:49.864Z,95.78
2022-10-21T03:08:16.456Z,95.45
2022-10-21T03:10:43.291Z,95.03
2022-10-21T03:13:09.911Z,94.71
2022-10-21T03:15:36.387Z,94.56
2022-10-21T03:18:02.920Z,95.00
2022-10-21T03:20:29.366Z,94.81
2022-10-21T03:22:55.840Z,94.97
2022-10-21T03:25:22.290Z,94.62
2022-10-21T03:27:50.741Z,94.50
2022-10-21T03:30:17.412Z,94.56
2022-10-21T03:32:43.901Z,95.09
2022-10-21T03:35:10.415Z,94.79
2022-10-21T03:37:36.919Z,94.92
2022-10-21T03:40:07.452Z,95.05
2022-10-21T03:42:36.848Z,94.99
2022-10-21T03:45:03.712Z,95.61
2022-10-21T03:47:30.224Z,95.23
2022-10-21T03:49:57.332Z,95.24
2022-10-21T03:52:23.864Z,94.93
2022-10-21T03:54:50.344Z,95.14
2022-10-21T03:57:16.825Z,95.24
2022-10-21T03:59:43.342Z,95.21
2022-10-21T04:02:09.809Z,95.50
2022-10-21T04:04:36.284Z,95.66
2022-10-21T04:07:02.863Z,94.87
2022-10-21T04:09:29.359Z,95.46
2022-10-21T04:11:55.802Z,95.12
2022-10-21T04:14:22.279Z,95.38
2022-10-21T04:16:53.653Z,95.17
2022-10-21T04:19:28.752Z,95.46
2022-10-21T04:21:55.192Z,94.89
2022-10-21T04:24:21.724Z,95.48
2022-10-21T04:26:49.278Z,94.95
2022-10-21T04:29:15.759Z,95.29
2022-10-21T04:31:42.363Z,95.03
2022-10-21T04:34:08.901Z,95.18
2022-10-21T04:36:35.520Z,95.57
2022-10-21T04:39:01.972Z,95.79
2022-10-21T04:41:28.547Z,96.05
2022-10-21T04:43:55.243Z,95.74
2022-10-21T04:46:21.824Z,95.84
2022-10-21T04:48:48.457Z,96.19
2022-10-21T04:51:14.942Z,95.74
2022-10-21T04:53:41.459Z,96.06
2022-10-21T04:56:09.225Z,96.06
2022-10-21T04:58:35.921Z,95.31
2022-10-21T05:01:03.349Z,95.58
2022-10-21T05:03:30.620Z,95.20
2022-10-21T05:05:57.139Z,95.40
2022-10-21T05:08:23.731Z,94.77
2022-10-21T05:10:57.303Z,94.70
2022-10-21T05:13:23.747Z,95.48
2022-10-21T05:15:50.206Z,95.27
2022-10-21T05:18:16.684Z,95.34
2022-10-21T05:20:43.207Z,94.95
2022-10-21T05:23:09.658Z,94.64
2022-10-21T05:25:36.181Z,94.30
2022-10-21T05:28:02.655Z,94.17
2022-10-21T05:30:29.214Z,94.88
2022-10-21T05:32:55.929Z,95.09
2022-10-21T05:35:22.519Z,94.69
2022-10-21T05:37:50.055Z,94.86
2022-10-21T05:40:16.781Z,94.02
2022-10-21T05:42:43.343Z,94.04
2022-10-21T05:45:10.736Z,94.47
2022-10-21T05:47:38.134Z,94.92
2022-10-21T05:50:05.037Z,94.27
2022-10-21T05:52:31.539Z,94.25
2022-10-21T05:54:59.125Z,94.87
2022-10-21T05:57:25.645Z,95.06
2022-10-21T05:59:52.232Z,94.11
2022-10-21T06:02:18.921Z,93.78
2022-10-21T06:04:45.459Z,93.48
2022-10-21T06:07:11.901Z,93.12
2022-10-21T06:09:38.547Z,94.17
2022-10-21T06:12:06.469Z,93.97
2022-10-21T06:14:35.566Z,94.52
2022-10-21T06:17:04.063Z,93.99
2022-10-21T06:19:31.097Z,93.86
2022-10-21T06:21:58.409Z,93.10
2022-10-21T06:24:25.547Z,93.15
2022-10-21T06:26:52.379Z,93.58
2022-10-21T06:29:19.286Z,93.11
2022-10-21T06:31:46.042Z,93.37
2022-10-21T06:34:12.660Z,94.39
2022-10-21T06:36:39.237Z,94.17
2022-10-21T06:39:06.568Z,94.40
2022-10-21T06:41:33.116Z,93.47
2022-10-21T06:43:59.800Z,93.35
2022-10-21T06:46:26.604Z,92.71
2022-10-21T06:48:53.246Z,92.44
2022-10-21T06:51:22.536Z,92.72
2022-10-21T06:53:54.715Z,92.39
2022-10-21T06:56:22.423Z,92.15
2022-10-21T06:58:50.232Z,92.72
2022-10-21T07:01:34.804Z,92.75
2022-10-21T07:04:09.012Z,92.25
2022-10-21T07:06:36.110Z,92.42
2022-10-21T07:09:07.500Z,92.74
2022-10-21T07:11:34.205Z,92.52
2022-10-21T07:14:01.813Z,92.94
2022-10-21T07:16:31.458Z,92.88
2022-10-21T07:18:58.543Z,92.43
2022-10-21T07:21:27.941Z,92.32
2022-10-21T07:23:58.980Z,91.65
2022-10-21T07:26:28.487Z,91.79
2022-10-21T07:28:58.033Z,91.07
2022-10-21T07:31:24.599Z,90.82
2022-10-21T07:33:51.067Z,91.25
2022-10-21T07:36:24.583Z,89.56
2022-10-21T07:38:52.926Z,90.17
2022-10-21T07:41:21.197Z,89.87
2022-10-21T07:43:47.983Z,89.62
2022-10-21T07:46:15.428Z,88.74
2022-10-21T07:48:41.913Z,88.60
2022-10-21T07:51:12.044Z,89.02
2022-10-21T07:53:39.393Z,88.27
2022-10-21T07:56:15.354Z,88.84
2022-10-21T07:58:43.316Z,88.60
2022-10-21T08:01:11.497Z,87.99
2022-10-21T08:03:39.139Z,87.77
2022-10-21T08:06:07.465Z,87.51
2022-10-21T08:08:35.605Z,87.73
2022-10-21T08:11:03.799Z,87.43
2022-10-21T08:13:31.945Z,87.36
2022-10-21T08:15:59.121Z,86.89
2022-10-21T08:18:26.334Z,87.10
2022-10-21T08:20:53.007Z,87.94
2022-10-21T08:23:22.330Z,87.55
2022-10-21T08:25:54.006Z,87.07
2022-10-21T08:28:22.463Z,87.52
2022-10-21T08:30:49.358Z,86.97
2022-10-21T08:33:16.348Z,86.69
2022-10-21T08:35:43.704Z,86.72
2022-10-21T08:38:11.356Z,86.32
2022-10-21T08:40:41.182Z,86.23
2022-10-21T08:43:22.353Z,86.73
2022-10-21T08:45:53.812Z,86.83
2022-10-21T08:48:26.308Z,86.38
2022-10-21T08:50:56.211Z,86.57
2022-10-21T08:53:24.868Z,86.97
2022-10-21T08:55:57.692Z,86.58
2022-10-21T08:58:25.145Z,85.59
2022-10-21T09:00:54.774Z,85.56
2022-10-21T09:03:32.458Z,85.66
2022-10-21T09:06:09.461Z,85.11
2022-10-21T09:08:57.592Z,85.17
2022-10-21T09:11:38.877Z,84.57
2022-10-21T09:14:36.426Z,84.41
2022-10-21T09:17:35.275Z,83.21
2022-10-21T09:20:20.174Z,83.59
2022-10-21T09:23:25.786Z,83.73
2022-10-21T09:26:25.341Z,83.01
2022-10-21T09:28:54.520Z,82.79
2022-10-21T09:31:21.683Z,82.61
2022-10-21T09:33:59.398Z,82.11
2022-10-21T09:36:48.003Z,83.26
2022-10-21T09:39:35.004Z,84.36
2022-10-21T09:42:06.535Z,84.52
2022-10-21T09:44:40.655Z,83.97
2022-10-21T09:47:19.222Z,84.92
2022-10-21T09:50:06.486Z,85.17
2022-10-21T09:52:36.385Z,84.34
2022-10-21T09:55:04.073Z,83.97
2022-10-21T09:57:33.855Z,82.78
2022-10-21T10:00:02.391Z,82.62
2022-10-21T10:02:36.960Z,82.39
2022-10-21T10:05:43.979Z,82.32
2022-10-21T10:08:47.327Z,83.53
2022-10-21T10:11:17.664Z,82.66
2022-10-21T10:13:52.887Z,83.03
2022-10-21T10:16:30.288Z,82.76
2022-10-21T10:19:28.763Z,81.59
2022-10-21T10:22:10.437Z,82.79
2022-10-21T10:24:40.552Z,80.72
2022-10-21T10:27:19.200Z,79.37
2022-10-21T10:29:53.691Z,77.46
2022-10-21T10:32:24.787Z,78.20
2022-10-21T10:34:58.863Z,77.65
2022-10-21T10:37:28.701Z,77.63
2022-10-21T10:39:58.938Z,75.71
2022-10-21T10:42:33.078Z,73.82
2022-10-21T10:45:12.400Z,73.90
2022-10-21T10:47:47.724Z,71.88
2022-10-21T10:50:37.533Z,71.97
2022-10-21T10:53:27.372Z,72.13
2022-10-21T10:55:59.918Z,71.55
2022-10-21T10:58:31.537Z,72.56
2022-10-21T11:01:02.445Z,72.79
2022-10-21T11:03:41.280Z,71.45
2022-10-21T11:06:18.092Z,72.09
2022-10-21T11:08:56.342Z,72.36
2022-10-21T11:11:34.384Z,73.04
2022-10-21T11:14:01.150Z,72.59
2022-10-21T11:16:57.312Z,74.44
2022-10-21T11:19:44.451Z,72.89
2022-10-21T11:22:17.982Z,73.33
2022-10-21T11:25:09.392Z,72.92
2022-10-21T11:28:14.064Z,73.35
2022-10-21T11:31:00.035Z,72.21
2022-10-21T11:34:18.424Z,71.77
2022-10-21T11:37:02.908Z,71.53
2022-10-21T11:39:51.987Z,71.52
2022-10-21T11:42:26.048Z,70.49
2022-10-21T11:45:14.238Z,70.53
2022-10-21T11:48:03.340Z,70.87
2022-10-21T11:50:41.883Z,72.09
2022-10-21T11:53:39.375Z,70.27
2022-10-21T11:56:30.871Z,70.28
2022-10-21T11:59:20.709Z,70.32
2022-10-21T12:02:23.195Z,70.11
2022-10-21T12:05:08.533Z,71.30
2022-10-21T12:08:08.632Z,71.59
2022-10-21T12:10:38.038Z,70.89
2022-10-21T12:13:13.207Z,71.97
2022-10-21T12:15:44.642Z,71.78
2022-10-21T12:18:16.706Z,71.69
2022-10-21T12:20:46.928Z,72.27
2022-10-21T12:23:17.832Z,73.15
2022-10-21T12:25:47.294Z,72.61
2022-10-21T12:28:23.300Z,71.94
2022-10-21T12:31:00.428Z,72.39
2022-10-21T12:33:36.031Z,73.19
2022-10-21T12:36:24.791Z,73.07
2022-10-21T12:38:56.240Z,73.17
2022-10-21T12:41:34.360Z,73.04
2022-10-21T12:44:27.946Z,73.27
2022-10-21T12:46:56.447Z,73.34
2022-10-21T12:49:32.605Z,72.81
2022-10-21T12:52:13.961Z,73.93
2022-10-21T12:54:51.008Z,73.34
2022-10-21T12:57:29.073Z,72.62
2022-10-21T13:00:14.586Z,73.82
2022-10-21T13:02:59.783Z,73.68
2022-10-21T13:05:38.340Z,73.68
2022-10-21T13:08:20.159Z,73.49
2022-10-21T13:11:08.038Z,73.99
2022-10-21T13:13:37.455Z,74.12
2022-10-21T13:16:19.307Z,74.15
2022-10-21T13:18:53.407Z,74.13
2022-10-21T13:21:41.104Z,73.60
2022-10-21T13:24:21.319Z,73.42
2022-10-21T13:26:51.857Z,74.44
2022-10-21T13:29:25.435Z,74.81
2022-10-21T13:32:22.322Z,75.19
2022-10-21T13:34:49.299Z,76.36
2022-10-21T13:37:24.705Z,76.24
2022-10-21T13:39:52.701Z,75.89
2022-10-21T13:42:24.126Z,76.45
2022-10-21T13:44:57.223Z,75.99
2022-10-21T13:47:28.084Z,76.00
2022-10-21T13:49:57.675Z,75.34
2022-10-21T13:52:28.937Z,75.14
2022-10-21T13:55:00.555Z,76.01
2022-10-21T13:57:35.973Z,75.71
2022-10-21T14:00:17.072Z,75.92
2022-10-21T14:02:52.511Z,75.25
2022-10-21T14:05:30.885Z,76.02
2022-10-21T14:07:58.052Z,76.07
2022-10-21T14:10:24.945Z,74.94
2022-10-21T14:12:52.122Z,75.12
2022-10-21T14:15:28.328Z,74.84
2022-10-21T14:17:58.663Z,75.57
2022-10-21T14:20:33.970Z,75.48
2022-10-21T14:23:15.307Z,75.67
2022-10-21T14:25:42.253Z,76.13
2022-10-21T14:28:12.224Z,75.99
2022-10-21T14:30:39.045Z,76.30
2022-10-21T14:33:08.605Z,76.96
2022-10-21T14:35:35.136Z,77.46
2022-10-21T14:38:03.836Z,77.41
2022-10-21T14:40:36.006Z,77.73
2022-10-21T14:43:11.474Z,77.14
2022-10-21T14:45:45.697Z,78.22
2022-10-21T14:48:24.440Z,77.80
2022-10-21T14:51:01.567Z,78.07
2022-10-21T14:53:34.817Z,78.12
2022-10-21T14:56:05.011Z,77.87
2022-10-21T14:58:35.847Z,78.08
2022-10-21T15:01:12.059Z,78.56
2022-10-21T15:03:39.755Z,79.37
2022-10-21T15:06:10.416Z,79.78
2022-10-21T15:08:41.096Z,78.88
2022-10-21T15:11:09.065Z,78.80
2022-10-21T15:13:35.660Z,78.60
2022-10-21T15:16:04.077Z,79.69
2022-10-21T15:18:41.200Z,80.72
2022-10-21T15:21:12.550Z,80.28
2022-10-21T15:23:41.609Z,81.04
2022-10-21T15:26:16.364Z,80.47
2022-10-21T15:28:43.328Z,81.02
2022-10-21T15:31:36.295Z,81.86
2022-10-21T15:34:02.858Z,82.03
2022-10-21T15:36:29.372Z,81.95
2022-10-21T15:38:55.840Z,82.13
2022-10-21T15:41:25.167Z,81.40
2022-10-21T15:44:16.582Z,81.20
2022-10-21T15:46:46.946Z,80.81
2022-10-21T15:49:18.264Z,81.12
2022-10-21T15:51:44.899Z,80.79
2022-10-21T15:54:11.396Z,81.37
2022-10-21T15:56:38.211Z,81.27
2022-10-21T15:59:04.845Z,82.09
2022-10-21T16:01:31.537Z,81.97
2022-10-21T16:04:04.152Z,81.47
2022-10-21T16:06:30.714Z,81.96
2022-10-21T16:08:59.990Z,82.17
2022-10-21T16:11:40.473Z,82.44
2022-10-21T16:14:10.233Z,82.65
2022-10-21T16:16:39.293Z,83.56
2022-10-21T16:19:06.137Z,83.78
2022-10-21T16:21:32.776Z,83.87
2022-10-21T16:23:59.326Z,83.96
2022-10-21T16:26:28.152Z,84.57
2022-10-21T16:28:56.629Z,85.17
2022-10-21T16:31:24.504Z,85.54
2022-10-21T16:33:51.008Z,86.07
2022-10-21T16:36:23.921Z,87.25
2022-10-21T16:38:51.216Z,88.07
2022-10-21T16:41:20.896Z,88.35
2022-10-21T16:43:47.831Z,88.51
2022-10-21T16:46:26.311Z,88.52
2022-10-21T16:48:53.839Z,88.62
2022-10-21T16:51:23.891Z,89.70
2022-10-21T16:53:50.483Z,89.57
2022-10-21T16:56:17.723Z,89.87
2022-10-21T16:58:44.312Z,91.29
2022-10-21T17:01:15.562Z,91.07
2022-10-21T17:03:42.692Z,91.42
2022-10-21T17:06:14.744Z,91.44
2022-10-21T17:08:41.675Z,91.33
2022-10-21T17:11:17.289Z,91.34
2022-10-21T17:13:43.976Z,91.39
2022-10-21T17:16:10.565Z,91.49
2022-10-21T17:18:37.048Z,92.07
2022-10-21T17:21:04.172Z,91.85
2022-10-21T17:23:31.646Z,91.92
2022-10-21T17:25:58.165Z,92.88
2022-10-21T17:28:24.756Z,92.78
2022-10-21T17:30:52.950Z,92.78
2022-10-21T17:33:43.123Z,92.96
2022-10-21T17:36:09.728Z,92.69
2022-10-21T17:38:36.397Z,93.02
2022-10-21T17:41:03.174Z,92.59
2022-10-21T17:43:29.785Z,93.21
2022-10-21T17:45:57.072Z,93.45
2022-10-21T17:48:25.323Z,93.49
2022-10-21T17:50:56.566Z,93.98
2022-10-21T17:53:32.545Z,94.43
2022-10-21T17:56:04.831Z,94.40
2022-10-21T17:58:31.728Z,94.64
2022-10-21T18:00:58.702Z,95.07
2022-10-21T18:03:27.396Z,95.27
2022-10-21T18:05:55.719Z,95.01
2022-10-21T18:08:23.795Z,95.26
2022-10-21T18:10:58.311Z,95.17
2022-10-21T18:13:27.312Z,95.35
2022-10-21T18:15:54.832Z,95.16
2022-10-21T18:18:22.758Z,95.59
2022-10-21T18:20:49.284Z,95.26
2022-10-21T18:23:16.106Z,95.30
2022-10-21T18:25:43.387Z,95.59
2022-10-21T18:28:10.176Z,95.34
2022-10-21T18:30:42.488Z,95.02
2022-10-21T18:33:09.561Z,95.49
2022-10-21T18:35:36.133Z,95.04
2022-10-21T18:38:02.633Z,95.14
2022-10-21T18:40:29.458Z,94.69
2022-10-21T18:42:56.156Z,95.24
2022-10-21T18:45:22.789Z,94.98
2022-10-21T18:47:51.248Z,95.29
2022-10-21T18:50:18.065Z,94.90
2022-10-21T18:52:44.566Z,94.99
2022-10-21T18:55:11.097Z,94.91
2022-10-21T18:57:37.891Z,95.17
2022-10-21T19:00:08.988Z,95.05
2022-10-21T19:02:35.475Z,95.37
2022-10-21T19:05:02.589Z,94.87
2022-10-21T19:07:29.383Z,94.92
2022-10-21T19:09:56.207Z,95.04
2022-10-21T19:12:23.680Z,95.68
2022-10-21T19:14:50.872Z,94.77
2022-10-21T19:17:17.741Z,95.05
2022-10-21T19:19:48.570Z,95.02
2022-10-21T19:22:23.737Z,94.79
2022-10-21T19:30:21.227Z,94.49
2022-10-21T19:32:48.311Z,94.23
2022-10-21T19:35:14.974Z,94.74
2022-10-21T19:37:41.445Z,94.32
2022-10-21T19:40:10.414Z,94.24
2022-10-21T19:42:37.165Z,94.62
2022-10-21T19:45:04.061Z,95.46
2022-10-21T19:47:31.318Z,95.05
2022-10-21T19:49:57.966Z,95.27
2022-10-21T19:52:24.536Z,95.64
2022-10-21T19:54:52.473Z,96.07
2022-10-21T19:57:19.193Z,95.74
2022-10-21T19:59:45.718Z,95.75
2022-10-21T20:02:12.185Z,95.82
2022-10-21T20:04:38.699Z,95.69
2022-10-21T20:07:05.254Z,95.32
2022-10-21T20:09:33.905Z,95.77
2022-10-21T20:12:02.940Z,95.24
2022-10-21T20:14:29.476Z,95.88
2022-10-21T20:16:55.934Z,95.33
2022-10-21T20:19:22.478Z,95.74
2022-10-21T20:21:49.467Z,95.00
2022-10-21T20:24:17.031Z,95.05
2022-10-21T20:26:45.547Z,94.83
2022-10-21T20:29:13.233Z,95.04
2022-10-21T20:31:39.759Z,95.04
2022-10-21T20:34:06.673Z,95.03
2022-10-21T20:36:34.763Z,95.21
2022-10-21T20:39:03.203Z,95.62
2022-10-21T20:41:34.231Z,95.17
2022-10-21T20:44:02.153Z,95.32
2022-10-21T20:46:32.432Z,95.61
2022-10-21T20:48:58.957Z,95.54
2022-10-21T20:51:29.056Z,95.82
2022-10-21T20:54:00.530Z,95.89
2022-10-21T20:56:29.154Z,95.69
2022-10-21T20:58:56.324Z,95.47
2022-10-21T21:01:28.409Z,95.15
2022-10-21T21:03:59.147Z,95.40
2022-10-21T21:06:26.324Z,95.57
2022-10-21T21:09:22.081Z,95.59
2022-10-21T21:11:39.812Z,95.74
2022-10-21T21:14:06.587Z,95.09
2022-10-21T21:16:33.281Z,95.15
2022-10-21T21:19:05.092Z,95.74
2022-10-21T21:21:33.837Z,95.87
2022-10-21T21:24:00.803Z,96.09
2022-10-21T21:26:29.811Z,95.94
2022-10-21T21:28:56.372Z,96.29
2022-10-21T21:31:25.978Z,95.79
2022-10-21T21:33:52.494Z,95.79
2022-10-21T21:36:20.631Z,95.57
2022-10-21T21:38:47.618Z,95.14
2022-10-21T21:41:16.646Z,95.07
2022-10-21T21:43:48.141Z,95.34
2022-10-21T21:46:22.765Z,95.49
2022-10-21T21:49:04.639Z,95.62
2022-10-21T21:51:34.515Z,95.58
2022-10-21T21:54:01.132Z,96.15
2022-10-21T21:56:28.369Z,95.52
2022-10-21T21:58:56.901Z,96.06
2022-10-21T22:01:29.305Z,95.58
2022-10-21T22:03:56.679Z,95.27
2022-10-21T22:08:59.445Z,95.94
2022-10-21T22:11:28.835Z,96.17
2022-10-21T22:13:55.708Z,96.35
2022-10-21T22:16:24.390Z,96.17
2022-10-21T22:18:51.274Z,96.22
2022-10-21T22:21:18.691Z,96.48
2022-10-21T22:23:46.630Z,96.67
2022-10-21T22:26:14.362Z,96.87
2022-10-21T22:28:41.510Z,96.89
2022-10-21T22:31:11.498Z,96.79
2022-10-21T22:33:38.512Z,96.15
2022-10-21T22:36:05.981Z,96.12
2022-10-21T22:38:32.477Z,96.18
2022-10-21T22:41:01.175Z,96.22
2022-10-21T22:43:28.105Z,96.48
2022-10-21T22:46:05.132Z,96.94
2022-10-21T22:48:42.029Z,97.69
2022-10-21T22:51:08.549Z,97.24
2022-10-21T22:53:36.557Z,97.43
2022-10-21T22:56:04.021Z,97.47
2022-10-21T22:58:30.838Z,97.19
2022-10-21T23:00:57.542Z,97.54
2022-10-21T23:03:24.024Z,97.54
2022-10-21T23:05:50.562Z,97.77
2022-10-21T23:08:18.158Z,98.14
2022-10-21T23:10:47.617Z,97.97
2022-10-21T23:13:14.088Z,97.84
2022-10-21T23:15:40.562Z,97.94
2022-10-21T23:18:07.038Z,98.02
2022-10-21T23:20:33.560Z,98.00
2022-10-21T23:23:00.162Z,97.69
2022-10-21T23:25:27.453Z,97.77
2022-10-21T23:27:54.261Z,97.74
2022-10-21T23:30:21.223Z,97.78
2022-10-21T23:32:48.066Z,97.14
2022-10-21T23:35:15.788Z,96.92
2022-10-21T23:37:42.861Z,97.55
2022-10-21T23:40:10.543Z,97.78
2022-10-21T23:42:41.840Z,97.40
2022-10-21T23:45:11.117Z,97.72
2022-10-21T23:47:38.719Z,97.90
2022-10-21T23:50:06.417Z,97.82
2022-10-21T23:52:32.919Z,97.99
2022-10-21T23:54:59.352Z,97.41
2022-10-21T23:57:26.348Z,97.43
2022-10-21T23:59:52.991Z,97.61
